Time;durP1;ratioP1;P1;durP2;ratioP2;P2;SDS_P1;SDS_P2;PMS_P1;PMS_P2;Temp;Humidity;BMP_temperature;BMP_pressure;BME280_temperature;BME280_humidity;BME280_pressure;Samples;Min_cycle;Max_cycle;Signal;HPM_P1;HPM_P2
2024/01/05 00:00:51;;;;;;;9.27;3.87;;;;;;;;;;5028449;28;20472;-62
2024/01/05 00:03:16;;;;;;;7.47;2.80;;;;;;;;;;5030798;28;20025;-62
2024/01/05 00:05:42;;;;;;;7.43;3.47;;;;;;;;;;5028279;28;20017;-62
2024/01/05 00:08:07;;;;;;;9.40;4.00;;;;;;;;;;5028889;28;20044;-62
2024/01/05 00:10:32;;;;;;;7.83;3.27;;;;;;;;;;5028295;28;20021;-63
2024/01/05 00:12:57;;;;;;;8.47;3.50;;;;;;;;;;5027555;28;20024;-63
2024/01/05 00:15:23;;;;;;;6.50;2.87;;;;;;;;;;5027163;28;20363;-63
2024/01/05 00:17:48;;;;;;;9.93;4.40;;;;;;;;;;5028833;28;20338;-62
2024/01/05 00:20:14;;;;;;;7.47;3.60;;;;;;;;;;5028519;28;20049;-62
2024/01/05 00:22:40;;;;;;;12.07;4.77;;;;;;;;;;5029055;28;20014;-62
2024/01/05 00:25:05;;;;;;;6.57;3.10;;;;;;;;;;5027269;28;20025;-62
2024/01/05 00:27:30;;;;;;;8.73;3.47;;;;;;;;;;5028575;28;20882;-62
2024/01/05 00:29:56;;;;;;;7.67;3.63;;;;;;;;;;5027095;28;20026;-62
2024/01/05 00:32:21;;;;;;;8.50;3.80;;;;;;;;;;5027062;28;21411;-62
2024/01/05 00:34:46;;;;;;;7.77;3.37;;;;;;;;;;5026855;28;21408;-63
2024/01/05 00:37:12;;;;;;;7.20;2.33;;;;;;;;;;5028735;28;20374;-63
2024/01/05 00:39:37;;;;;;;9.90;3.90;;;;;;;;;;5029179;28;20389;-62
2024/01/05 00:42:04;;;;;;;12.97;5.20;;;;;;;;;;5032288;28;20096;-62
2024/01/05 00:44:29;;;;;;;12.27;4.53;;;;;;;;;;5031463;28;20024;-62
2024/01/05 00:46:54;;;;;;;5.60;2.83;;;;;;;;;;5033010;28;20454;-62
2024/01/05 00:49:20;;;;;;;10.23;4.40;;;;;;;;;;5008976;28;20033;-63
2024/01/05 00:51:45;;;;;;;10.57;3.63;;;;;;;;;;5032793;28;20026;-63
2024/01/05 00:54:10;;;;;;;10.80;4.33;;;;;;;;;;5031821;28;20025;-62
2024/01/05 00:56:35;;;;;;;16.80;5.37;;;;;;;;;;5031415;28;20566;-63
2024/01/05 00:59:01;;;;;;;8.53;3.57;;;;;;;;;;5032407;28;20031;-63
2024/01/05 01:01:26;;;;;;;6.57;3.27;;;;;;;;;;5032651;28;20060;-63
2024/01/05 01:03:51;;;;;;;10.23;4.40;;;;;;;;;;5032749;28;20091;-62
2024/01/05 01:06:16;;;;;;;13.43;6.07;;;;;;;;;;5032133;28;20021;-62
2024/01/05 01:08:42;;;;;;;14.90;5.67;;;;;;;;;;5033343;28;20025;-63
2024/01/05 01:11:16;;;;;;;7.20;3.10;;;;;;;;;;5031009;28;20033;-63
2024/01/05 01:13:42;;;;;;;9.17;4.23;;;;;;;;;;5031856;28;20041;-63
2024/01/05 01:16:07;;;;;;;11.83;4.87;;;;;;;;;;5030895;28;20504;-62
2024/01/05 01:18:32;;;;;;;10.97;5.07;;;;;;;;;;5030910;28;20477;-62
2024/01/05 01:20:58;;;;;;;10.80;4.80;;;;;;;;;;5030846;28;20033;-62
2024/01/05 01:23:23;;;;;;;12.63;5.63;;;;;;;;;;5031082;28;20029;-62
2024/01/05 01:25:48;;;;;;;10.93;5.00;;;;;;;;;;5030983;28;20028;-63
2024/01/05 01:28:13;;;;;;;11.50;5.00;;;;;;;;;;5032462;28;20053;-63
2024/01/05 01:30:39;;;;;;;12.00;4.90;;;;;;;;;;5031267;28;20072;-62
2024/01/05 01:33:04;;;;;;;10.77;4.47;;;;;;;;;;5029358;28;20068;-62
2024/01/05 01:35:29;;;;;;;15.13;6.90;;;;;;;;;;5031368;28;20027;-62
2024/01/05 01:37:55;;;;;;;15.70;6.00;;;;;;;;;;5031904;28;20061;-62
2024/01/05 01:40:20;;;;;;;16.67;7.07;;;;;;;;;;5031508;28;20089;-62
2024/01/05 01:42:46;;;;;;;10.90;4.83;;;;;;;;;;5031545;28;20029;-62
2024/01/05 01:45:12;;;;;;;15.17;5.63;;;;;;;;;;5030761;28;20025;-63
2024/01/05 01:47:37;;;;;;;12.63;5.30;;;;;;;;;;5032049;28;20021;-62
2024/01/05 01:50:02;;;;;;;3.87;1.77;;;;;;;;;;5030848;28;20029;-63
2024/01/05 01:52:28;;;;;;;0.63;0.60;;;;;;;;;;5030621;28;20033;-63
2024/01/05 01:54:53;;;;;;;0.90;0.90;;;;;;;;;;5029612;28;20026;-62
2024/01/05 01:57:18;;;;;;;0.93;0.83;;;;;;;;;;5029115;28;20064;-62
2024/01/05 01:59:44;;;;;;;1.17;0.97;;;;;;;;;;5031287;28;20025;-62
2024/01/05 02:02:10;;;;;;;1.10;1.00;;;;;;;;;;5031787;28;20022;-63
2024/01/05 02:04:36;;;;;;;3.00;1.90;;;;;;;;;;5030658;28;20156;-62
2024/01/05 02:07:01;;;;;;;0.40;0.40;;;;;;;;;;5031411;28;20152;-63
2024/01/05 02:09:27;;;;;;;1.93;0.70;;;;;;;;;;5030240;28;20029;-62
2024/01/05 02:11:52;;;;;;;0.97;0.93;;;;;;;;;;5030675;28;20029;-62
2024/01/05 02:14:18;;;;;;;0.30;0.30;;;;;;;;;;5030130;28;20028;-63
2024/01/05 02:16:43;;;;;;;0.33;0.33;;;;;;;;;;5030948;28;20092;-63
2024/01/05 02:19:08;;;;;;;0.40;0.40;;;;;;;;;;5030196;28;20080;-63
2024/01/05 02:21:37;;;;;;;0.50;0.50;;;;;;;;;;5030205;28;20080;-63
2024/01/05 02:24:02;;;;;;;0.40;0.40;;;;;;;;;;5030929;28;20014;-63
2024/01/05 02:26:28;;;;;;;1.10;1.00;;;;;;;;;;5030551;28;20524;-62
2024/01/05 02:28:53;;;;;;;1.37;1.13;;;;;;;;;;5030534;28;20044;-63
2024/01/05 02:31:18;;;;;;;0.97;0.67;;;;;;;;;;5030263;28;20060;-63
2024/01/05 02:33:43;;;;;;;2.40;1.17;;;;;;;;;;5030171;28;20025;-63
2024/01/05 02:36:09;;;;;;;0.30;0.30;;;;;;;;;;5030151;28;20119;-63
2024/01/05 02:38:34;;;;;;;0.93;0.80;;;;;;;;;;5030883;28;20030;-63
2024/01/05 02:41:00;;;;;;;0.23;0.23;;;;;;;;;;5010431;28;20031;-63
2024/01/05 02:43:25;;;;;;;0.63;0.63;;;;;;;;;;5030041;28;20013;-63
2024/01/05 02:45:50;;;;;;;1.57;1.47;;;;;;;;;;5029684;28;20018;-63
2024/01/05 02:48:15;;;;;;;0.20;0.20;;;;;;;;;;5030408;28;20025;-63
2024/01/05 02:50:41;;;;;;;0.70;0.70;;;;;;;;;;5030247;28;20022;-64
2024/01/05 02:53:06;;;;;;;0.40;0.40;;;;;;;;;;5026310;28;20105;-63
2024/01/05 02:55:31;;;;;;;0.27;0.27;;;;;;;;;;5030244;28;20025;-63
2024/01/05 02:57:57;;;;;;;0.30;0.30;;;;;;;;;;5030663;28;20060;-63
2024/01/05 03:00:22;;;;;;;0.60;0.60;;;;;;;;;;5029354;28;20470;-63
2024/01/05 03:02:47;;;;;;;0.50;0.50;;;;;;;;;;5030141;28;20010;-63
2024/01/05 03:05:12;;;;;;;1.50;0.93;;;;;;;;;;5030258;28;20014;-63
2024/01/05 03:07:40;;;;;;;0.73;0.73;;;;;;;;;;5029447;28;20025;-63
2024/01/05 03:10:06;;;;;;;0.60;0.60;;;;;;;;;;5029752;28;20025;-63
2024/01/05 03:12:31;;;;;;;0.40;0.40;;;;;;;;;;5028630;28;20013;-63
2024/01/05 03:14:56;;;;;;;0.70;0.70;;;;;;;;;;5028630;28;20022;-63
2024/01/05 03:17:22;;;;;;;0.37;0.37;;;;;;;;;;5029054;28;20018;-63
2024/01/05 03:19:47;;;;;;;2.17;0.97;;;;;;;;;;5029614;28;20076;-63
2024/01/05 03:22:12;;;;;;;3.30;1.07;;;;;;;;;;5029968;28;20021;-62
2024/01/05 03:24:38;;;;;;;1.63;1.30;;;;;;;;;;5029820;28;20017;-63
2024/01/05 03:27:04;;;;;;;0.40;0.40;;;;;;;;;;5029962;28;20489;-63
2024/01/05 03:29:29;;;;;;;0.77;0.77;;;;;;;;;;5030162;28;20104;-62
2024/01/05 03:31:54;;;;;;;0.40;0.40;;;;;;;;;;5029218;28;20100;-63
2024/01/05 03:34:20;;;;;;;0.60;0.60;;;;;;;;;;5029468;28;20393;-63
2024/01/05 03:36:45;;;;;;;1.23;1.13;;;;;;;;;;5029413;28;20075;-64
2024/01/05 03:39:10;;;;;;;1.03;0.93;;;;;;;;;;5029310;28;20041;-64
2024/01/05 03:41:36;;;;;;;0.30;0.30;;;;;;;;;;5028684;28;20023;-64
2024/01/05 03:44:01;;;;;;;1.07;0.97;;;;;;;;;;5027910;28;20374;-63
2024/01/05 03:46:27;;;;;;;1.43;1.13;;;;;;;;;;5029423;28;20021;-63
2024/01/05 03:48:52;;;;;;;0.50;0.50;;;;;;;;;;5029673;28;20029;-64
2024/01/05 03:51:17;;;;;;;0.40;0.40;;;;;;;;;;5028874;28;20029;-64
2024/01/05 03:53:43;;;;;;;0.30;0.30;;;;;;;;;;5029045;28;20493;-63
2024/01/05 03:56:08;;;;;;;0.50;0.50;;;;;;;;;;5029282;28;20025;-64
2024/01/05 03:58:34;;;;;;;0.47;0.47;;;;;;;;;;5028597;28;20033;-63
2024/01/05 04:01:00;;;;;;;0.50;0.50;;;;;;;;;;5027895;28;20030;-64
2024/01/05 04:03:25;;;;;;;0.30;0.30;;;;;;;;;;5027032;28;20030;-64
2024/01/05 04:05:51;;;;;;;0.40;0.40;;;;;;;;;;5028841;28;20017;-64
2024/01/05 04:08:16;;;;;;;0.60;0.60;;;;;;;;;;5028921;28;20437;-64
2024/01/05 04:10:41;;;;;;;0.40;0.40;;;;;;;;;;5029229;28;20033;-64
2024/01/05 04:13:07;;;;;;;0.80;0.80;;;;;;;;;;5031044;28;20512;-64
2024/01/05 04:15:36;;;;;;;0.73;0.73;;;;;;;;;;5033266;28;20017;-63
2024/01/05 04:18:02;;;;;;;0.30;0.30;;;;;;;;;;5032469;28;20128;-64
2024/01/05 04:20:27;;;;;;;1.43;1.33;;;;;;;;;;5032755;28;20511;-64
2024/01/05 04:22:52;;;;;;;0.47;0.47;;;;;;;;;;5033243;28;20094;-64
2024/01/05 04:25:18;;;;;;;0.40;0.37;;;;;;;;;;5032766;28;20026;-65
2024/01/05 04:27:43;;;;;;;2.37;1.83;;;;;;;;;;5034001;28;20090;-64
2024/01/05 04:30:08;;;;;;;2.47;0.83;;;;;;;;;;5032699;28;20466;-64
2024/01/05 04:32:34;;;;;;;1.03;0.93;;;;;;;;;;5032385;28;20089;-64
2024/01/05 04:34:59;;;;;;;2.50;1.03;;;;;;;;;;5031652;28;20033;-64
2024/01/05 04:37:24;;;;;;;0.40;0.40;;;;;;;;;;5030307;28;20037;-64
2024/01/05 04:39:50;;;;;;;0.93;0.93;;;;;;;;;;5032663;28;20030;-64
2024/01/05 04:42:15;;;;;;;0.73;0.73;;;;;;;;;;5032408;28;20022;-64
2024/01/05 04:44:41;;;;;;;0.40;0.40;;;;;;;;;;5032557;28;20021;-64
2024/01/05 04:47:06;;;;;;;0.20;0.20;;;;;;;;;;5032387;28;20024;-64
2024/01/05 04:49:33;;;;;;;0.67;0.40;;;;;;;;;;5033155;28;20119;-63
2024/01/05 04:51:58;;;;;;;0.70;0.70;;;;;;;;;;5032166;28;20037;-64
2024/01/05 04:54:24;;;;;;;0.50;0.50;;;;;;;;;;5031812;28;20029;-64
2024/01/05 04:56:49;;;;;;;0.63;0.63;;;;;;;;;;5032509;28;20018;-64
2024/01/05 04:59:14;;;;;;;2.47;1.63;;;;;;;;;;5031863;28;20017;-64
2024/01/05 05:01:40;;;;;;;0.40;0.40;;;;;;;;;;5030566;28;20068;-63
2024/01/05 05:04:05;;;;;;;0.57;0.57;;;;;;;;;;5032516;28;20014;-64
2024/01/05 05:06:30;;;;;;;0.47;0.47;;;;;;;;;;5030248;28;20876;-63
2024/01/05 05:08:55;;;;;;;1.53;0.87;;;;;;;;;;5029564;28;20029;-63
2024/01/05 05:11:21;;;;;;;0.83;0.83;;;;;;;;;;5029796;28;20025;-63
2024/01/05 05:13:46;;;;;;;0.93;0.93;;;;;;;;;;5031805;28;20021;-64
2024/01/05 05:16:11;;;;;;;0.63;0.63;;;;;;;;;;5031047;28;20017;-64
2024/01/05 05:18:36;;;;;;;1.23;1.13;;;;;;;;;;5031615;28;20085;-63
2024/01/05 05:21:02;;;;;;;0.47;0.47;;;;;;;;;;5032111;28;20375;-64
2024/01/05 05:23:27;;;;;;;2.10;0.80;;;;;;;;;;5031248;28;20029;-63
2024/01/05 05:25:52;;;;;;;0.30;0.30;;;;;;;;;;5031164;28;20045;-64
2024/01/05 05:28:18;;;;;;;0.30;0.30;;;;;;;;;;5031916;28;20025;-64
2024/01/05 05:30:43;;;;;;;0.30;0.30;;;;;;;;;;5031615;28;20024;-64
2024/01/05 05:33:08;;;;;;;0.50;0.50;;;;;;;;;;5030871;28;20025;-64
2024/01/05 05:35:33;;;;;;;0.50;0.50;;;;;;;;;;5032000;28;20445;-64
2024/01/05 05:38:03;;;;;;;0.20;0.20;;;;;;;;;;5031558;28;20029;-63
2024/01/05 05:40:28;;;;;;;0.97;0.87;;;;;;;;;;5031555;28;20021;-63
2024/01/05 05:42:53;;;;;;;0.50;0.50;;;;;;;;;;5023263;28;20025;-64
2024/01/05 05:45:18;;;;;;;0.30;0.30;;;;;;;;;;5029295;28;20064;-63
2024/01/05 05:47:44;;;;;;;2.93;1.50;;;;;;;;;;5031713;28;20378;-64
2024/01/05 05:50:09;;;;;;;0.53;0.53;;;;;;;;;;5030757;28;20082;-64
2024/01/05 05:52:34;;;;;;;1.33;1.23;;;;;;;;;;5030779;28;20037;-64
2024/01/05 05:55:00;;;;;;;0.37;0.37;;;;;;;;;;5031252;28;20030;-64
2024/01/05 05:57:25;;;;;;;0.50;0.50;;;;;;;;;;5031588;28;20393;-62
2024/01/05 05:59:51;;;;;;;0.90;0.90;;;;;;;;;;5031488;28;20018;-63
2024/01/05 06:02:17;;;;;;;0.97;0.97;;;;;;;;;;5030932;28;20024;-63
2024/01/05 06:04:42;;;;;;;0.80;0.80;;;;;;;;;;5030450;28;20017;-62
2024/01/05 06:07:07;;;;;;;0.43;0.43;;;;;;;;;;5031222;28;20021;-63
2024/01/05 06:09:32;;;;;;;0.60;0.60;;;;;;;;;;5029250;28;20108;-62
2024/01/05 06:11:57;;;;;;;0.40;0.40;;;;;;;;;;5031027;28;20099;-63
2024/01/05 06:14:23;;;;;;;0.30;0.30;;;;;;;;;;5026841;28;20691;-62
2024/01/05 06:16:48;;;;;;;2.63;0.93;;;;;;;;;;5030842;28;20025;-62
2024/01/05 06:19:13;;;;;;;1.07;0.97;;;;;;;;;;5028563;28;20117;-62
2024/01/05 06:21:38;;;;;;;2.40;1.10;;;;;;;;;;5029998;28;20104;-63
2024/01/05 06:24:04;;;;;;;0.57;0.57;;;;;;;;;;5030285;28;20037;-62
2024/01/05 06:26:30;;;;;;;1.33;1.03;;;;;;;;;;5030747;28;20028;-63
2024/01/05 06:28:56;;;;;;;0.50;0.50;;;;;;;;;;5030170;28;20025;-62
2024/01/05 06:31:23;;;;;;;0.40;0.40;;;;;;;;;;5030740;28;20030;-62
2024/01/05 06:33:48;;;;;;;0.37;0.37;;;;;;;;;;5028611;28;20033;-62
2024/01/05 06:36:13;;;;;;;1.67;1.43;;;;;;;;;;5031474;28;20029;-62
2024/01/05 06:38:38;;;;;;;0.80;0.80;;;;;;;;;;5030625;28;20389;-62
2024/01/05 06:41:04;;;;;;;1.13;1.03;;;;;;;;;;5030205;28;20393;-62
2024/01/05 06:43:30;;;;;;;0.60;0.60;;;;;;;;;;5031010;28;20017;-62
2024/01/05 06:45:55;;;;;;;0.40;0.40;;;;;;;;;;5030063;28;20021;-62
2024/01/05 06:48:20;;;;;;;0.80;0.80;;;;;;;;;;5030508;28;20029;-62
2024/01/05 06:50:46;;;;;;;0.33;0.33;;;;;;;;;;5030835;28;20056;-62
2024/01/05 06:53:11;;;;;;;0.47;0.47;;;;;;;;;;5030421;28;20033;-62
2024/01/05 06:55:36;;;;;;;1.13;1.07;;;;;;;;;;5030492;28;20053;-62
2024/01/05 06:58:02;;;;;;;0.97;0.87;;;;;;;;;;5030772;28;20620;-62
2024/01/05 07:00:28;;;;;;;0.87;0.77;;;;;;;;;;5029707;28;20036;-61
2024/01/05 07:02:54;;;;;;;0.70;0.70;;;;;;;;;;5030347;28;20021;-62
2024/01/05 07:05:20;;;;;;;5.63;1.20;;;;;;;;;;5028317;28;20021;-63
2024/01/05 07:07:45;;;;;;;0.40;0.40;;;;;;;;;;5030398;28;20043;-63
2024/01/05 07:10:10;;;;;;;0.43;0.43;;;;;;;;;;5030229;28;20029;-63
2024/01/05 07:12:35;;;;;;;0.30;0.30;;;;;;;;;;5029434;28;20039;-63
2024/01/05 07:15:01;;;;;;;1.50;0.97;;;;;;;;;;5029977;28;20030;-62
2024/01/05 07:17:26;;;;;;;0.60;0.60;;;;;;;;;;5030497;28;20355;-63
2024/01/05 07:19:52;;;;;;;3.30;1.73;;;;;;;;;;5029650;28;20506;-63
2024/01/05 07:22:17;;;;;;;0.50;0.50;;;;;;;;;;5030172;28;20477;-63
2024/01/05 07:24:43;;;;;;;1.37;1.07;;;;;;;;;;5030059;28;20603;-63
2024/01/05 07:27:10;;;;;;;0.93;0.83;;;;;;;;;;5030005;28;20028;-63
2024/01/05 07:29:35;;;;;;;0.77;0.77;;;;;;;;;;5029566;28;20025;-63
2024/01/05 07:32:01;;;;;;;3.00;1.23;;;;;;;;;;5029311;28;20103;-63
2024/01/05 07:34:26;;;;;;;2.00;0.87;;;;;;;;;;5029684;28;20033;-62
2024/01/05 07:36:51;;;;;;;0.63;0.60;;;;;;;;;;5029268;28;20030;-63
2024/01/05 07:39:17;;;;;;;0.70;0.70;;;;;;;;;;5029535;28;20083;-63
2024/01/05 07:41:42;;;;;;;0.83;0.83;;;;;;;;;;5029272;28;20469;-63
2024/01/05 07:44:07;;;;;;;0.30;0.30;;;;;;;;;;5029188;28;20397;-63
2024/01/05 07:46:32;;;;;;;0.40;0.40;;;;;;;;;;5029373;28;20032;-63
2024/01/05 07:48:58;;;;;;;3.33;1.23;;;;;;;;;;5028315;28;20033;-63
2024/01/05 07:51:23;;;;;;;0.70;0.70;;;;;;;;;;5029418;28;20133;-63
2024/01/05 07:53:49;;;;;;;1.30;0.97;;;;;;;;;;5029643;28;20477;-63
2024/01/05 07:56:17;;;;;;;0.40;0.40;;;;;;;;;;5029841;28;20026;-63
2024/01/05 07:58:42;;;;;;;0.80;0.80;;;;;;;;;;5029015;28;20017;-63
2024/01/05 08:01:07;;;;;;;2.63;1.23;;;;;;;;;;5028814;28;20112;-63
2024/01/05 08:03:33;;;;;;;3.20;1.23;;;;;;;;;;5029280;28;20021;-62
2024/01/05 08:05:58;;;;;;;0.53;0.53;;;;;;;;;;5027965;28;20026;-63
2024/01/05 08:08:23;;;;;;;0.40;0.40;;;;;;;;;;5026129;28;20452;-63
2024/01/05 08:10:48;;;;;;;2.40;0.63;;;;;;;;;;5028240;28;20120;-63
2024/01/05 08:13:13;;;;;;;2.13;1.10;;;;;;;;;;5012376;28;20033;-63
2024/01/05 08:15:39;;;;;;;0.53;0.53;;;;;;;;;;5025289;28;20029;-63
2024/01/05 08:18:04;;;;;;;2.63;2.30;;;;;;;;;;5026884;28;20116;-63
2024/01/05 08:20:29;;;;;;;0.30;0.30;;;;;;;;;;5026882;28;20069;-63
2024/01/05 08:22:55;;;;;;;0.87;0.87;;;;;;;;;;5024160;28;20033;-62
2024/01/05 08:25:20;;;;;;;0.93;0.90;;;;;;;;;;5021565;28;20040;-63
2024/01/05 08:27:45;;;;;;;0.40;0.40;;;;;;;;;;5028734;28;20024;-63
2024/01/05 08:30:11;;;;;;;0.70;0.70;;;;;;;;;;5027834;28;20040;-63
2024/01/05 08:32:37;;;;;;;1.10;1.00;;;;;;;;;;5026786;28;20458;-63
2024/01/05 08:35:03;;;;;;;0.50;0.50;;;;;;;;;;5028323;28;20116;-63
2024/01/05 08:37:28;;;;;;;1.87;1.77;;;;;;;;;;5027688;28;20116;-62
2024/01/05 08:39:53;;;;;;;2.53;1.80;;;;;;;;;;5027981;28;20571;-63
2024/01/05 08:42:19;;;;;;;0.47;0.47;;;;;;;;;;5028631;28;20075;-63
2024/01/05 08:44:45;;;;;;;1.33;1.13;;;;;;;;;;5029504;28;20029;-63
2024/01/05 08:47:11;;;;;;;0.77;0.77;;;;;;;;;;5029192;28;20786;-63
2024/01/05 08:49:36;;;;;;;2.30;0.70;;;;;;;;;;5031179;28;20091;-62
2024/01/05 08:52:02;;;;;;;1.07;1.00;;;;;;;;;;5029718;28;20029;-63
2024/01/05 08:54:27;;;;;;;4.10;1.40;;;;;;;;;;5031555;28;20035;-62
2024/01/05 08:56:52;;;;;;;1.00;1.00;;;;;;;;;;5028653;28;20083;-62
2024/01/05 08:59:18;;;;;;;0.80;0.77;;;;;;;;;;5031228;28;20393;-63
2024/01/05 09:01:43;;;;;;;0.67;0.67;;;;;;;;;;5032010;28;20128;-62
2024/01/05 09:04:10;;;;;;;1.33;1.23;;;;;;;;;;5032751;28;20068;-62
2024/01/05 09:06:37;;;;;;;0.60;0.60;;;;;;;;;;5032053;28;20028;-62
2024/01/05 09:09:03;;;;;;;2.10;1.80;;;;;;;;;;5031854;28;20033;-62
2024/01/05 09:11:28;;;;;;;1.90;1.13;;;;;;;;;;5032118;28;20489;-62
2024/01/05 09:13:53;;;;;;;0.87;0.87;;;;;;;;;;5031632;28;20028;-62
2024/01/05 09:16:19;;;;;;;0.50;0.50;;;;;;;;;;5031861;28;20117;-63
2024/01/05 09:18:44;;;;;;;0.40;0.40;;;;;;;;;;5029548;28;20065;-62
2024/01/05 09:21:11;;;;;;;0.40;0.40;;;;;;;;;;5031379;28;20079;-63
2024/01/05 09:23:36;;;;;;;2.07;1.77;;;;;;;;;;5032314;28;20518;-62
2024/01/05 09:26:01;;;;;;;0.90;0.80;;;;;;;;;;5032002;28;20109;-63
2024/01/05 09:28:26;;;;;;;1.53;1.00;;;;;;;;;;5032182;28;20039;-62
2024/01/05 09:30:52;;;;;;;3.93;1.43;;;;;;;;;;5030980;28;20025;-63
2024/01/05 09:33:17;;;;;;;0.53;0.53;;;;;;;;;;5031209;28;20025;-63
2024/01/05 09:35:42;;;;;;;0.70;0.70;;;;;;;;;;5031331;28;20554;-63
2024/01/05 09:38:07;;;;;;;0.73;0.73;;;;;;;;;;5032294;28;20400;-62
2024/01/05 09:40:33;;;;;;;2.13;1.23;;;;;;;;;;5031881;28;20398;-62
2024/01/05 09:43:02;;;;;;;0.83;0.83;;;;;;;;;;5032018;28;20104;-62
2024/01/05 09:45:27;;;;;;;0.50;0.50;;;;;;;;;;5031221;28;20028;-62
2024/01/05 09:47:55;;;;;;;1.00;0.90;;;;;;;;;;5031271;28;20477;-63
2024/01/05 09:50:20;;;;;;;1.13;1.03;;;;;;;;;;5032207;28;20029;-62
2024/01/05 09:52:45;;;;;;;0.83;0.83;;;;;;;;;;5031632;28;20079;-63
2024/01/05 09:55:11;;;;;;;0.93;0.83;;;;;;;;;;5031776;28;20017;-62
2024/01/05 09:57:37;;;;;;;4.23;1.97;;;;;;;;;;5031634;28;20014;-62
2024/01/05 10:00:05;;;;;;;1.30;1.20;;;;;;;;;;5031004;28;20469;-62
2024/01/05 10:02:43;;;;;;;0.90;0.90;;;;;;;;;;5031181;28;20049;-62
2024/01/05 10:05:09;;;;;;;2.57;2.23;;;;;;;;;;5030807;28;20021;-62
2024/01/05 10:07:42;;;;;;;0.60;0.60;;;;;;;;;;5031916;28;20516;-62
2024/01/05 10:10:10;;;;;;;0.37;0.37;;;;;;;;;;5029237;28;20080;-62
2024/01/05 10:12:35;;;;;;;1.07;0.90;;;;;;;;;;5031189;28;20025;-62
2024/01/05 10:15:06;;;;;;;0.43;0.43;;;;;;;;;;5029943;28;20392;-63
2024/01/05 10:17:33;;;;;;;1.15;0.60;;;;;;;;;;5029559;28;20462;-63
2024/01/05 10:20:09;;;;;;;0.83;0.80;;;;;;;;;;5030972;28;20137;-63
2024/01/05 10:22:35;;;;;;;1.00;0.90;;;;;;;;;;5029931;28;20049;-64
2024/01/05 10:25:13;;;;;;;2.20;1.63;;;;;;;;;;5030800;28;20052;-64
2024/01/05 10:27:39;;;;;;;2.57;2.37;;;;;;;;;;5031372;28;20768;-63
2024/01/05 10:30:05;;;;;;;0.60;0.60;;;;;;;;;;5030065;28;20650;-63
2024/01/05 10:32:30;;;;;;;1.27;1.17;;;;;;;;;;5030321;28;20128;-63
2024/01/05 10:34:55;;;;;;;0.83;0.83;;;;;;;;;;5030384;28;20020;-63
2024/01/05 10:37:22;;;;;;;1.57;1.47;;;;;;;;;;5031189;28;20049;-63
2024/01/05 10:39:58;;;;;;;0.77;0.73;;;;;;;;;;5029747;28;20013;-63
2024/01/05 10:42:24;;;;;;;0.43;0.43;;;;;;;;;;5030590;28;20485;-63
2024/01/05 10:44:53;;;;;;;1.57;1.47;;;;;;;;;;5030038;28;20017;-63
2024/01/05 10:47:19;;;;;;;1.83;1.33;;;;;;;;;;5030410;28;20104;-62
2024/01/05 10:49:49;;;;;;;0.67;0.67;;;;;;;;;;5030544;28;20385;-65
2024/01/05 10:52:18;;;;;;;2.03;1.70;;;;;;;;;;5030381;28;20037;-64
2024/01/05 10:54:44;;;;;;;1.23;1.03;;;;;;;;;;5030837;28;20025;-64
2024/01/05 10:57:11;;;;;;;2.53;1.50;;;;;;;;;;5029963;28;20017;-65
2024/01/05 10:59:37;;;;;;;1.40;1.17;;;;;;;;;;5029411;28;20021;-64
2024/01/05 11:02:03;;;;;;;1.80;1.03;;;;;;;;;;5030391;28;20087;-64
2024/01/05 11:04:29;;;;;;;1.17;1.07;;;;;;;;;;5029596;28;20569;-64
2024/01/05 11:06:54;;;;;;;1.20;1.10;;;;;;;;;;5027271;28;20025;-64
2024/01/05 11:09:36;;;;;;;1.00;0.93;;;;;;;;;;5030073;28;20386;-64
2024/01/05 11:12:10;;;;;;;0.60;0.60;;;;;;;;;;5030651;28;20489;-64
2024/01/05 11:14:53;;;;;;;1.43;1.33;;;;;;;;;;5029658;28;20063;-65
2024/01/05 11:17:24;;;;;;;0.83;0.73;;;;;;;;;;5029949;28;20067;-64
2024/01/05 11:20:08;;;;;;;1.13;1.00;;;;;;;;;;5030020;28;20433;-64
2024/01/05 11:22:35;;;;;;;0.60;0.60;;;;;;;;;;5029710;28;20114;-65
2024/01/05 11:25:00;;;;;;;0.80;0.80;;;;;;;;;;5029960;28;20013;-64
2024/01/05 11:27:26;;;;;;;1.77;1.63;;;;;;;;;;5030121;28;20028;-64
2024/01/05 11:29:53;;;;;;;0.33;0.33;;;;;;;;;;5029101;28;20026;-65
2024/01/05 11:32:56;;;;;;;0.40;0.40;;;;;;;;;;5028644;28;20021;-64
2024/01/05 11:35:24;;;;;;;0.60;0.60;;;;;;;;;;5029239;28;20033;-65
2024/01/05 11:37:50;;;;;;;0.73;0.73;;;;;;;;;;5029935;28;20468;-64
2024/01/05 11:40:21;;;;;;;0.50;0.50;;;;;;;;;;5029575;28;20028;-64
2024/01/05 11:42:47;;;;;;;2.17;1.85;;;;;;;;;;5029315;28;20457;-64
2024/01/05 11:45:12;;;;;;;2.77;1.40;;;;;;;;;;5028904;28;20108;-64
2024/01/05 11:47:38;;;;;;;0.70;0.70;;;;;;;;;;5029703;28;20025;-65
2024/01/05 11:50:22;;;;;;;0.70;0.63;;;;;;;;;;5029870;28;20025;-64
2024/01/05 11:52:47;;;;;;;0.70;0.70;;;;;;;;;;5029435;28;20022;-64
2024/01/05 11:55:13;;;;;;;0.23;0.23;;;;;;;;;;5027632;28;20095;-64
2024/01/05 11:57:39;;;;;;;0.47;0.47;;;;;;;;;;5028811;28;20014;-64
2024/01/05 12:00:04;;;;;;;1.80;0.93;;;;;;;;;;5029367;28;20025;-63
2024/01/05 12:02:30;;;;;;;0.87;0.87;;;;;;;;;;5028727;28;20033;-64
2024/01/05 12:04:56;;;;;;;0.63;0.63;;;;;;;;;;5028306;28;20021;-64
2024/01/05 12:07:22;;;;;;;0.47;0.47;;;;;;;;;;5029583;28;20052;-64
2024/01/05 12:09:51;;;;;;;1.17;1.07;;;;;;;;;;5028971;28;20033;-64
2024/01/05 12:12:16;;;;;;;3.00;2.13;;;;;;;;;;5026870;28;20470;-64
2024/01/05 12:14:41;;;;;;;0.30;0.30;;;;;;;;;;5029284;28;20028;-64
2024/01/05 12:17:13;;;;;;;0.57;0.50;;;;;;;;;;5029179;28;20040;-64
2024/01/05 12:19:39;;;;;;;1.43;1.23;;;;;;;;;;5028165;28;20060;-64
2024/01/05 12:22:07;;;;;;;2.10;1.90;;;;;;;;;;5028629;28;20017;-64
2024/01/05 12:24:32;;;;;;;3.13;1.37;;;;;;;;;;5029849;28;20096;-64
2024/01/05 12:26:58;;;;;;;1.30;1.17;;;;;;;;;;5028257;28;20112;-64
2024/01/05 12:29:23;;;;;;;0.43;0.40;;;;;;;;;;5006281;28;20501;-63
2024/01/05 12:31:49;;;;;;;1.00;0.90;;;;;;;;;;5028933;28;20564;-64
2024/01/05 12:34:17;;;;;;;0.43;0.43;;;;;;;;;;5030924;28;20025;-64
2024/01/05 12:36:43;;;;;;;0.57;0.57;;;;;;;;;;5032922;28;20033;-64
2024/01/05 12:39:10;;;;;;;0.70;0.63;;;;;;;;;;5032531;28;20429;-64
2024/01/05 12:41:35;;;;;;;0.60;0.60;;;;;;;;;;5032769;28;20022;-64
2024/01/05 12:44:01;;;;;;;0.63;0.63;;;;;;;;;;5033208;28;20044;-64
2024/01/05 12:46:26;;;;;;;1.50;1.37;;;;;;;;;;5032477;28;20075;-64
2024/01/05 12:48:51;;;;;;;0.50;0.50;;;;;;;;;;5030948;28;20087;-64
2024/01/05 12:51:22;;;;;;;0.40;0.40;;;;;;;;;;5031453;28;20060;-64
2024/01/05 12:53:56;;;;;;;1.87;1.47;;;;;;;;;;5031577;28;20035;-64
2024/01/05 12:56:22;;;;;;;0.60;0.60;;;;;;;;;;5031147;28;20516;-64
2024/01/05 12:58:57;;;;;;;1.17;0.83;;;;;;;;;;5031672;28;20021;-65
2024/01/05 13:01:23;;;;;;;1.23;1.13;;;;;;;;;;5032538;28;20479;-64
2024/01/05 13:03:52;;;;;;;0.60;0.60;;;;;;;;;;5032365;28;20025;-64
2024/01/05 13:06:18;;;;;;;1.13;0.97;;;;;;;;;;5030402;28;20145;-64
2024/01/05 13:08:44;;;;;;;0.70;0.70;;;;;;;;;;5032514;28;20021;-64
2024/01/05 13:11:10;;;;;;;2.63;1.93;;;;;;;;;;5031438;28;20032;-64
2024/01/05 13:13:36;;;;;;;2.30;1.37;;;;;;;;;;5031384;28;20075;-64
2024/01/05 13:16:01;;;;;;;1.77;1.30;;;;;;;;;;5032173;28;20422;-63
2024/01/05 13:18:27;;;;;;;0.80;0.70;;;;;;;;;;5032404;28;20377;-63
2024/01/05 13:20:53;;;;;;;2.13;1.93;;;;;;;;;;5032448;28;20045;-63
2024/01/05 13:23:18;;;;;;;1.70;1.23;;;;;;;;;;5032034;28;20083;-63
2024/01/05 13:25:43;;;;;;;1.70;1.57;;;;;;;;;;5031764;28;20120;-63
2024/01/05 13:28:09;;;;;;;1.57;1.47;;;;;;;;;;5030006;28;20033;-63
2024/01/05 13:30:34;;;;;;;0.40;0.40;;;;;;;;;;5031758;28;20056;-63
2024/01/05 13:33:00;;;;;;;1.60;0.93;;;;;;;;;;5032263;28;20159;-63
2024/01/05 13:35:25;;;;;;;1.47;1.30;;;;;;;;;;5031842;28;20080;-63
2024/01/05 13:37:50;;;;;;;0.70;0.70;;;;;;;;;;5032236;28;20433;-63
2024/01/05 13:40:15;;;;;;;0.47;0.47;;;;;;;;;;5030633;28;20030;-63
2024/01/05 13:42:41;;;;;;;0.77;0.77;;;;;;;;;;5032009;28;20057;-63
2024/01/05 13:45:06;;;;;;;0.50;0.50;;;;;;;;;;5031001;28;20037;-62
2024/01/05 13:47:32;;;;;;;0.60;0.60;;;;;;;;;;5031050;28;20381;-63
2024/01/05 13:49:57;;;;;;;2.57;0.77;;;;;;;;;;5031861;28;20477;-62
2024/01/05 13:52:23;;;;;;;0.50;0.50;;;;;;;;;;5031718;28;20040;-62
2024/01/05 13:54:49;;;;;;;0.77;0.77;;;;;;;;;;5030687;28;20118;-63
2024/01/05 13:57:14;;;;;;;1.53;1.20;;;;;;;;;;5030131;28;20038;-62
2024/01/05 13:59:39;;;;;;;0.30;0.30;;;;;;;;;;5031531;28;20056;-63
2024/01/05 14:02:05;;;;;;;1.70;1.53;;;;;;;;;;5031238;28;20043;-63
2024/01/05 14:04:30;;;;;;;0.93;0.87;;;;;;;;;;5029999;28;20049;-63
2024/01/05 14:06:56;;;;;;;1.40;1.13;;;;;;;;;;5031227;28;20033;-63
2024/01/05 14:09:21;;;;;;;0.80;0.80;;;;;;;;;;5028923;28;20020;-63
2024/01/05 14:11:46;;;;;;;1.13;0.87;;;;;;;;;;5030723;28;20033;-63
2024/01/05 14:14:11;;;;;;;0.60;0.60;;;;;;;;;;5031229;28;20044;-64
2024/01/05 14:16:40;;;;;;;2.23;1.40;;;;;;;;;;5030620;28;20049;-63
2024/01/05 14:19:05;;;;;;;0.40;0.40;;;;;;;;;;5026729;28;20108;-64
2024/01/05 14:21:30;;;;;;;0.40;0.40;;;;;;;;;;5028384;28;20025;-64
2024/01/05 14:23:56;;;;;;;1.03;0.67;;;;;;;;;;5030337;28;20028;-64
2024/01/05 14:26:24;;;;;;;0.30;0.30;;;;;;;;;;5030399;28;20466;-64
2024/01/05 14:28:49;;;;;;;0.70;0.70;;;;;;;;;;5030782;28;20096;-64
2024/01/05 14:31:28;;;;;;;0.70;0.70;;;;;;;;;;5028402;28;20045;-64
2024/01/05 14:33:54;;;;;;;0.27;0.27;;;;;;;;;;5030421;28;20021;-64
2024/01/05 14:36:19;;;;;;;7.03;1.63;;;;;;;;;;5029971;28;20414;-65